Terminal Aerodrome Forecast
Issued by NWS Wakefield, VA

Home | Current Version | Previous Version | Text Only | Print | Product List | Glossary On
Versions: 1 2 3 4 5 6 7 8 9 10 11 12 13 14 15 16 17 18 19 20 21 22 23 24 25 26 27 28 29 30 31
000
FTUS41 KAKQ 251739
TAFORF
TAF
KORF 251739Z 2518/2618 12007KT P6SM BKN080
     FM252000 12007KT 6SM -SHRA VCTS BKN040CB
     FM260000 14004KT 4SM BR OVC025
     FM260600 29005KT 2SM BR OVC005
     FM261500 29008KT P6SM BKN010=

USA.gov is the U.S. government's official web portal to all federal, state and local government web resources and services.